Time;durP1;ratioP1;P1;durP2;ratioP2;P2;SDS_P1;SDS_P2;PMS_P1;PMS_P2;Temp;Humidity;BMP_temperature;BMP_pressure;BME280_temperature;BME280_humidity;BME280_pressure;Samples;Min_cycle;Max_cycle;Signal;HPM_P1;HPM_P2
2021/12/04 00:01:52;;;;;;;62.80;35.45;;;4.50;99.90;;;;;;5063694;28;20113;-79
2021/12/04 00:04:22;;;;;;;63.00;33.40;;;4.60;99.90;;;;;;5053324;28;20044;-79
2021/12/04 00:06:49;;;;;;;59.90;33.30;;;4.60;99.90;;;;;;5062102;28;20074;-80
2021/12/04 00:09:17;;;;;;;60.22;33.50;;;4.60;99.90;;;;;;5082350;28;20044;-77
2021/12/04 00:11:51;;;;;;;66.18;37.22;;;4.70;99.90;;;;;;5033223;28;20067;-75
2021/12/04 00:14:18;;;;;;;65.10;33.88;;;4.50;99.90;;;;;;5065760;28;20052;-81
2021/12/04 00:16:44;;;;;;;59.00;35.03;;;4.40;99.90;;;;;;5038014;28;20041;-81
2021/12/04 00:19:09;;;;;;;68.40;35.22;;;4.40;99.90;;;;;;5045843;28;20045;-80
2021/12/04 00:21:35;;;;;;;61.00;36.13;;;4.60;99.90;;;;;;5047756;28;20044;-80
2021/12/04 00:24:00;;;;;;;75.72;39.38;;;4.60;99.90;;;;;;5044576;28;20449;-79
2021/12/04 00:26:26;;;;;;;64.60;34.30;;;4.50;99.90;;;;;;5030431;28;20123;-80
2021/12/04 00:28:52;;;;;;;66.68;33.53;;;4.60;99.90;;;;;;5065304;28;20690;-79
2021/12/04 00:31:17;;;;;;;62.45;36.78;;;4.40;99.90;;;;;;5024607;28;20048;-80
2021/12/04 00:33:45;;;;;;;103.72;39.75;;;4.50;99.90;;;;;;5019621;28;20044;-79
2021/12/04 00:36:27;;;;;;;92.60;38.40;;;4.50;99.90;;;;;;5055787;28;20045;-82
2021/12/04 00:49:50;;;;;;;91.47;38.58;;;4.40;99.90;;;;;;5039539;28;20052;-80
2021/12/04 00:52:16;;;;;;;76.00;34.30;;;4.50;99.90;;;;;;5043243;28;20071;-75
2021/12/04 00:54:43;;;;;;;77.78;35.55;;;4.60;99.90;;;;;;5066178;28;20038;-81
2021/12/04 00:57:09;;;;;;;84.63;37.38;;;4.40;99.90;;;;;;5067630;28;20551;-80
2021/12/04 00:59:35;;;;;;;76.03;35.28;;;4.40;99.90;;;;;;5023612;28;20040;-80
2021/12/04 01:02:00;;;;;;;69.85;34.00;;;4.50;99.90;;;;;;5039729;28;20503;-80
2021/12/04 01:04:26;;;;;;;70.15;32.38;;;4.30;99.90;;;;;;5055988;28;20040;-79
2021/12/04 01:06:52;;;;;;;75.25;35.55;;;4.40;99.90;;;;;;5050674;28;20021;-80
2021/12/04 01:09:21;;;;;;;84.25;32.72;;;4.50;99.90;;;;;;5069313;28;20045;-80
2021/12/04 01:11:47;;;;;;;75.80;34.30;;;4.60;99.90;;;;;;5051628;28;20055;-79
2021/12/04 01:14:17;;;;;;;74.75;37.17;;;4.40;99.90;;;;;;5086412;28;20044;-75
2021/12/04 01:16:44;;;;;;;66.15;31.65;;;4.30;99.90;;;;;;5081453;28;20398;-80
2021/12/04 01:19:10;;;;;;;68.18;32.20;;;4.30;99.90;;;;;;5088990;28;20036;-81
2021/12/04 01:21:36;;;;;;;73.65;35.28;;;4.40;99.90;;;;;;5057893;28;20551;-78
2021/12/04 01:24:02;;;;;;;108.63;34.30;;;4.30;99.90;;;;;;5071940;28;20123;-76
2021/12/04 01:26:28;;;;;;;132.82;37.63;;;4.30;99.90;;;;;;5087049;28;20040;-80
2021/12/04 01:28:54;;;;;;;83.50;33.20;;;4.40;99.90;;;;;;5088492;28;20450;-75
2021/12/04 01:31:20;;;;;;;77.80;32.75;;;4.50;99.90;;;;;;5076747;28;20549;-81
2021/12/04 01:33:46;;;;;;;68.50;31.48;;;4.50;99.90;;;;;;5051008;28;20840;-80
2021/12/04 01:36:12;;;;;;;66.15;31.15;;;4.60;99.90;;;;;;5084843;28;20039;-80
2021/12/04 01:38:38;;;;;;;80.18;34.05;;;4.50;99.90;;;;;;5052190;28;20036;-80
2021/12/04 01:41:05;;;;;;;98.38;34.85;;;4.30;99.90;;;;;;5070420;28;20158;-81
2021/12/04 01:43:30;;;;;;;82.50;33.22;;;4.50;99.90;;;;;;5056376;28;20394;-79
2021/12/04 01:45:56;;;;;;;72.22;30.85;;;4.40;99.90;;;;;;5089245;28;20054;-81
2021/12/04 01:48:23;;;;;;;78.85;36.83;;;4.40;99.90;;;;;;5051951;28;20044;-80
2021/12/04 01:50:49;;;;;;;95.68;33.67;;;4.30;99.90;;;;;;5075166;28;20036;-80
2021/12/04 01:53:15;;;;;;;77.47;36.28;;;4.30;99.90;;;;;;5085393;28;20049;-81
2021/12/04 01:55:41;;;;;;;83.97;33.60;;;4.40;99.90;;;;;;5074655;28;20040;-80
2021/12/04 01:58:07;;;;;;;92.97;32.38;;;4.30;99.90;;;;;;5070724;28;20406;-80
2021/12/04 02:00:38;;;;;;;93.10;35.35;;;4.30;99.90;;;;;;5075023;28;20107;-81
2021/12/04 02:03:07;;;;;;;87.18;35.88;;;4.30;99.90;;;;;;5065515;28;20040;-80
2021/12/04 02:05:33;;;;;;;81.90;31.13;;;4.50;99.90;;;;;;5058478;28;20058;-80
2021/12/04 02:07:59;;;;;;;85.35;33.00;;;4.30;99.90;;;;;;5075190;28;20055;-81
2021/12/04 02:10:25;;;;;;;91.22;33.45;;;4.30;99.90;;;;;;5053198;28;20405;-82
2021/12/04 02:12:51;;;;;;;86.65;34.08;;;4.30;99.90;;;;;;5057948;28;20044;-80
2021/12/04 02:15:17;;;;;;;87.20;35.10;;;4.30;99.90;;;;;;5079355;28;20054;-81
2021/12/04 02:17:49;;;;;;;87.50;31.83;;;4.30;99.90;;;;;;5063125;28;20048;-79
2021/12/04 02:20:20;;;;;;;82.00;33.00;;;4.40;99.90;;;;;;5052758;28;20093;-77
2021/12/04 02:22:47;;;;;;;88.38;34.97;;;4.30;99.90;;;;;;5088882;28;20051;-81
2021/12/04 02:25:13;;;;;;;79.45;33.85;;;4.50;99.90;;;;;;5041200;28;20064;-77
2021/12/04 02:27:39;;;;;;;80.63;33.45;;;4.30;99.90;;;;;;5070118;28;20131;-80
2021/12/04 02:30:08;;;;;;;81.45;32.72;;;4.40;99.90;;;;;;5082442;28;20123;-81
2021/12/04 02:32:34;;;;;;;109.32;34.22;;;4.30;99.90;;;;;;5071149;28;20056;-81
2021/12/04 02:35:00;;;;;;;71.32;31.50;;;4.30;99.90;;;;;;5082072;28;20086;-80
2021/12/04 02:37:25;;;;;;;73.60;32.70;;;4.50;99.90;;;;;;5079319;28;20497;-81
2021/12/04 02:39:58;;;;;;;59.67;30.88;;;4.50;99.90;;;;;;5051500;28;20109;-81
2021/12/04 02:42:28;;;;;;;85.72;31.58;;;4.50;99.90;;;;;;5072658;28;20055;-81
2021/12/04 02:44:54;;;;;;;68.13;29.40;;;4.30;99.90;;;;;;5075854;28;20063;-76
2021/12/04 02:47:20;;;;;;;71.15;32.67;;;4.50;99.90;;;;;;5058479;28;20112;-81
2021/12/04 02:49:46;;;;;;;66.35;28.77;;;4.50;99.90;;;;;;5069144;28;20041;-81
2021/12/04 02:52:13;;;;;;;68.65;29.05;;;4.30;99.90;;;;;;5069489;28;20124;-81
2021/12/04 02:54:40;;;;;;;72.07;29.00;;;4.60;99.90;;;;;;5046829;28;20032;-79
2021/12/04 02:57:08;;;;;;;64.95;29.08;;;4.50;99.90;;;;;;5070503;28;20409;-81
2021/12/04 02:59:35;;;;;;;55.65;29.08;;;4.50;99.90;;;;;;5059257;28;20040;-81
2021/12/04 03:02:01;;;;;;;59.28;28.45;;;4.30;99.90;;;;;;5070318;28;20051;-81
2021/12/04 03:04:28;;;;;;;55.38;26.85;;;4.40;99.90;;;;;;5050130;28;20712;-80
2021/12/04 03:06:54;;;;;;;50.05;26.83;;;4.40;99.90;;;;;;5057760;28;20028;-76
2021/12/04 03:09:20;;;;;;;48.78;25.33;;;4.50;99.90;;;;;;5075065;28;20086;-80
2021/12/04 03:11:45;;;;;;;48.08;24.38;;;4.40;99.90;;;;;;5071801;28;20090;-80
2021/12/04 03:14:11;;;;;;;52.17;24.80;;;4.40;99.90;;;;;;5088137;28;20044;-80
2021/12/04 03:16:41;;;;;;;47.72;26.35;;;4.50;99.90;;;;;;5065946;28;20562;-81
2021/12/04 03:19:08;;;;;;;48.47;23.88;;;4.30;99.90;;;;;;5065140;28;20070;-79
2021/12/04 03:21:36;;;;;;;45.30;23.33;;;4.40;99.90;;;;;;5063377;28;20058;-81
2021/12/04 03:24:05;;;;;;;48.25;23.58;;;4.30;99.90;;;;;;5091131;28;20075;-76
2021/12/04 03:26:31;;;;;;;51.53;23.70;;;4.30;99.90;;;;;;5072270;28;20037;-81
2021/12/04 03:29:01;;;;;;;48.20;23.98;;;4.40;99.90;;;;;;5055996;28;20045;-81
2021/12/04 03:42:11;;;;;;;48.47;25.85;;;4.40;99.90;;;;;;5055209;28;20402;-81
2021/12/04 03:44:38;;;;;;;50.55;24.60;;;4.30;99.90;;;;;;5066594;28;20044;-81
2021/12/04 03:47:04;;;;;;;48.55;21.98;;;4.30;99.90;;;;;;5072204;28;20378;-81
2021/12/04 03:49:30;;;;;;;46.00;21.35;;;4.40;99.90;;;;;;5073256;28;20055;-80
2021/12/04 03:51:56;;;;;;;53.90;23.95;;;4.40;99.90;;;;;;5075553;28;20040;-81
2021/12/04 03:54:22;;;;;;;46.40;22.65;;;4.40;99.90;;;;;;5061352;28;20036;-80
2021/12/04 03:56:49;;;;;;;40.83;20.92;;;4.30;99.90;;;;;;5072586;28;20037;-81
2021/12/04 03:59:15;;;;;;;57.42;23.88;;;4.40;99.90;;;;;;5072964;28;20044;-80
2021/12/04 04:01:40;;;;;;;47.35;23.30;;;4.30;99.90;;;;;;5082500;28;20370;-76
2021/12/04 04:04:06;;;;;;;40.78;20.42;;;4.50;99.90;;;;;;5070967;28;20044;-79
2021/12/04 04:06:33;;;;;;;55.30;23.45;;;4.50;99.90;;;;;;5073105;28;20024;-80
2021/12/04 04:08:58;;;;;;;69.53;24.48;;;4.20;99.90;;;;;;5066802;28;20425;-81
2021/12/04 04:11:24;;;;;;;58.15;22.35;;;4.40;99.90;;;;;;5075942;28;20082;-80
2021/12/04 04:13:50;;;;;;;45.78;22.83;;;4.30;99.90;;;;;;5085354;28;20036;-80
2021/12/04 04:16:15;;;;;;;53.67;24.17;;;4.40;99.90;;;;;;5047941;28;20064;-81
2021/12/04 04:18:41;;;;;;;54.88;25.88;;;4.40;99.90;;;;;;5068541;28;20079;-81
2021/12/04 04:21:07;;;;;;;46.47;22.67;;;4.40;99.90;;;;;;5067811;28;20048;-80
2021/12/04 04:23:33;;;;;;;37.53;21.17;;;4.30;99.90;;;;;;5061502;28;20448;-81
2021/12/04 04:25:58;;;;;;;54.00;23.58;;;4.30;99.90;;;;;;5053394;28;20041;-78
2021/12/04 04:28:24;;;;;;;45.63;23.67;;;4.20;99.90;;;;;;5055356;28;20036;-80
2021/12/04 04:30:50;;;;;;;57.85;22.92;;;4.30;99.90;;;;;;5063660;28;20449;-80
2021/12/04 04:33:16;;;;;;;48.92;21.95;;;4.30;99.90;;;;;;5055345;28;20101;-80
2021/12/04 04:35:45;;;;;;;47.05;22.52;;;4.20;99.90;;;;;;5063228;28;20414;-80
2021/12/04 04:38:26;;;;;;;42.80;21.73;;;4.40;99.90;;;;;;5054387;28;20051;-81
2021/12/04 04:57:34;;;;;;;41.85;21.58;;;4.40;99.90;;;;;;5089932;28;20139;-79
2021/12/04 05:00:12;;;;;;;45.67;20.65;;;4.50;99.90;;;;;;5085595;28;20082;-80
2021/12/04 05:13:17;;;;;;;44.85;20.45;;;4.30;99.90;;;;;;5066962;28;20140;-80
2021/12/04 05:21:13;;;;;;;63.05;21.55;;;4.40;99.90;;;;;;5076995;28;20063;-81
2021/12/04 05:23:45;;;;;;;50.22;22.48;;;4.50;99.90;;;;;;5068165;28;20493;-81
2021/12/04 05:26:15;;;;;;;66.25;22.65;;;4.40;99.90;;;;;;5065689;28;20076;-80
2021/12/04 05:28:42;;;;;;;68.22;21.83;;;4.50;99.90;;;;;;5054717;28;20466;-80
2021/12/04 05:31:08;;;;;;;50.08;20.42;;;4.40;99.90;;;;;;5056510;28;20146;-79
2021/12/04 05:33:34;;;;;;;52.45;23.42;;;4.50;99.90;;;;;;5068861;28;20043;-79
2021/12/04 05:36:00;;;;;;;37.85;19.70;;;4.40;99.90;;;;;;5067910;28;20040;-81
2021/12/04 05:38:26;;;;;;;57.45;21.65;;;4.40;99.90;;;;;;5052476;28;20123;-81
2021/12/04 05:40:52;;;;;;;50.20;22.15;;;4.50;99.90;;;;;;5078322;28;20047;-80
2021/12/04 05:43:22;;;;;;;45.45;18.95;;;4.50;99.90;;;;;;5077610;28;20406;-81
2021/12/04 05:45:54;;;;;;;48.42;21.63;;;4.60;99.90;;;;;;5084270;28;20076;-80
2021/12/04 05:51:17;;;;;;;59.80;22.42;;;4.50;99.90;;;;;;5078990;28;20093;-79
2021/12/04 05:53:55;;;;;;;49.80;20.77;;;4.50;99.90;;;;;;5071097;28;20131;-81
2021/12/04 05:56:21;;;;;;;47.17;20.92;;;4.40;99.90;;;;;;5086914;28;20055;-81
2021/12/04 05:58:47;;;;;;;55.80;21.35;;;4.40;99.90;;;;;;5075260;28;20038;-81
2021/12/04 06:01:15;;;;;;;41.47;20.17;;;4.30;99.90;;;;;;5079921;28;20454;-78
2021/12/04 06:03:41;;;;;;;52.38;22.92;;;4.30;99.90;;;;;;5062955;28;20468;-81
2021/12/04 06:06:06;;;;;;;41.97;18.95;;;4.40;99.90;;;;;;5078829;28;20052;-80
2021/12/04 06:08:32;;;;;;;54.17;22.88;;;4.40;99.90;;;;;;5088875;28;20406;-80
2021/12/04 06:10:58;;;;;;;51.60;24.75;;;4.60;99.90;;;;;;5040759;28;20101;-81
2021/12/04 06:13:24;;;;;;;53.17;20.40;;;4.30;99.90;;;;;;5067048;28;20040;-81
2021/12/04 06:15:50;;;;;;;58.45;22.10;;;4.30;99.90;;;;;;5088738;28;20490;-81
2021/12/04 06:18:16;;;;;;;60.65;21.92;;;4.40;99.90;;;;;;5082681;28;20158;-81
2021/12/04 06:23:27;;;;;;;54.78;22.88;;;4.40;99.90;;;;;;5059506;28;20574;-78
2021/12/04 06:25:52;;;;;;;58.30;24.20;;;4.50;99.90;;;;;;5083349;28;20127;-78
2021/12/04 06:28:18;;;;;;;39.22;20.75;;;4.40;99.90;;;;;;5062759;28;20105;-77
2021/12/04 06:30:44;;;;;;;46.75;20.33;;;4.30;99.90;;;;;;5063729;28;20046;-77
2021/12/04 06:33:11;;;;;;;62.03;22.85;;;4.50;99.90;;;;;;5070391;28;20052;-77
2021/12/04 06:35:41;;;;;;;49.60;22.50;;;4.50;99.90;;;;;;5062609;28;20116;-78
2021/12/04 06:38:11;;;;;;;49.53;21.85;;;4.40;99.90;;;;;;5066678;28;20123;-84
2021/12/04 06:40:38;;;;;;;66.10;23.45;;;4.40;99.90;;;;;;5059715;28;20474;-84
2021/12/04 06:43:05;;;;;;;45.17;22.58;;;4.50;99.90;;;;;;5066012;28;20080;-83
2021/12/04 06:45:33;;;;;;;55.58;21.40;;;4.50;99.90;;;;;;5068231;28;20040;-84
2021/12/04 06:48:23;;;;;;;88.10;23.08;;;4.30;99.90;;;;;;5051900;28;20055;-83
2021/12/04 06:50:56;;;;;;;64.82;23.13;;;4.40;99.90;;;;;;5062530;28;20070;-83
2021/12/04 06:55:54;;;;;;;101.57;26.50;;;4.50;99.90;;;;;;5065471;28;20441;-84
2021/12/04 06:58:21;;;;;;;64.35;23.75;;;4.50;99.90;;;;;;5055359;28;20044;-84
2021/12/04 07:00:47;;;;;;;126.97;24.52;;;4.30;99.90;;;;;;5072097;28;20067;-84
2021/12/04 07:03:13;;;;;;;70.95;23.88;;;4.30;99.90;;;;;;5056321;28;20044;-75
2021/12/04 07:05:38;;;;;;;120.32;29.70;;;4.30;99.90;;;;;;5088295;28;20063;-83
2021/12/04 07:08:06;;;;;;;66.68;23.17;;;4.50;99.90;;;;;;5041806;28;20036;-78
2021/12/04 07:10:33;;;;;;;76.95;25.25;;;4.50;99.90;;;;;;5057329;28;20057;-80
2021/12/04 07:13:00;;;;;;;55.88;23.30;;;4.40;99.90;;;;;;5053694;28;20052;-85
2021/12/04 07:15:29;;;;;;;63.92;22.65;;;4.40;99.90;;;;;;5052448;28;20057;-84
2021/12/04 07:17:54;;;;;;;84.28;26.77;;;4.40;99.90;;;;;;5053050;28;20041;-84
2021/12/04 07:20:20;;;;;;;94.40;27.55;;;4.20;99.90;;;;;;5051333;28;20040;-84
2021/12/04 07:22:45;;;;;;;87.00;25.67;;;4.30;99.90;;;;;;5051418;28;20053;-85
2021/12/04 07:25:11;;;;;;;78.90;23.80;;;4.30;99.90;;;;;;5059801;28;20044;-85
2021/12/04 07:27:37;;;;;;;74.53;25.08;;;4.50;99.90;;;;;;5067209;28;20573;-85
2021/12/04 07:30:07;;;;;;;110.80;26.65;;;4.20;99.90;;;;;;5061941;28;20075;-84
2021/12/04 07:32:33;;;;;;;53.03;22.20;;;4.40;99.90;;;;;;5055653;28;20040;-84
2021/12/04 07:34:59;;;;;;;82.72;26.38;;;4.50;99.90;;;;;;5052843;28;20044;-85
2021/12/04 07:37:25;;;;;;;83.47;24.65;;;4.30;99.90;;;;;;5053178;28;20048;-86
2021/12/04 07:39:51;;;;;;;154.57;28.25;;;4.40;99.90;;;;;;5056466;28;20074;-84
2021/12/04 07:42:17;;;;;;;77.47;23.83;;;4.30;99.90;;;;;;5057840;28;20456;-84
2021/12/04 07:44:43;;;;;;;92.03;23.48;;;4.40;99.90;;;;;;5051107;28;20399;-81
2021/12/04 07:47:09;;;;;;;119.38;24.55;;;4.40;99.90;;;;;;5053103;28;20055;-83
2021/12/04 07:49:37;;;;;;;109.40;24.80;;;4.50;99.90;;;;;;5054370;28;20049;-85
2021/12/04 07:52:05;;;;;;;108.25;27.88;;;4.40;99.90;;;;;;5052378;28;20048;-84
2021/12/04 07:54:31;;;;;;;112.63;28.35;;;4.30;99.90;;;;;;5067609;28;20052;-78
2021/12/04 07:57:00;;;;;;;62.22;22.80;;;4.30;99.90;;;;;;5067286;28;20033;-86
2021/12/04 07:59:26;;;;;;;84.93;22.85;;;4.50;99.90;;;;;;5070097;28;20047;-85
2021/12/04 08:01:52;;;;;;;93.00;25.90;;;4.30;99.90;;;;;;5060046;28;20049;-85
2021/12/04 08:04:18;;;;;;;96.95;23.75;;;4.50;99.90;;;;;;5070912;28;20040;-88
2021/12/04 08:06:57;;;;;;;100.82;23.88;;;4.50;99.90;;;;;;5067615;28;20071;-86
2021/12/04 08:09:29;;;;;;;84.32;24.73;;;4.50;99.90;;;;;;5075452;28;20070;-85
2021/12/04 08:12:10;;;;;;;116.32;24.23;;;4.30;99.90;;;;;;5085306;28;20052;-84
2021/12/04 08:14:36;;;;;;;112.55;23.52;;;4.20;99.90;;;;;;5053180;28;20051;-87
2021/12/04 08:17:01;;;;;;;112.75;24.70;;;4.50;99.90;;;;;;5062473;28;20047;-80
2021/12/04 08:19:27;;;;;;;108.45;24.65;;;4.30;99.90;;;;;;5072787;28;20044;-86
2021/12/04 08:21:53;;;;;;;87.25;23.38;;;4.40;99.90;;;;;;5072590;28;20402;-87
2021/12/04 08:24:21;;;;;;;100.75;26.67;;;4.40;99.90;;;;;;5075150;28;20050;-86
2021/12/04 08:26:47;;;;;;;62.63;20.83;;;4.40;99.90;;;;;;5078854;28;20071;-87
2021/12/04 08:29:14;;;;;;;87.65;23.77;;;4.50;99.90;;;;;;5054051;28;20043;-80
2021/12/04 08:31:39;;;;;;;79.93;23.85;;;4.40;99.90;;;;;;5055148;28;20044;-85
2021/12/04 08:34:05;;;;;;;62.22;22.75;;;4.30;99.90;;;;;;5053706;28;20482;-87
2021/12/04 08:36:32;;;;;;;74.38;23.10;;;4.50;99.90;;;;;;5066445;28;20807;-88
2021/12/04 08:38:59;;;;;;;70.95;21.80;;;4.50;99.90;;;;;;5052583;28;20222;-87
2021/12/04 08:41:25;;;;;;;56.20;22.17;;;4.50;99.90;;;;;;5041330;28;20055;-86
2021/12/04 08:43:54;;;;;;;80.55;24.73;;;4.30;99.90;;;;;;5075543;28;20489;-86
2021/12/04 08:46:20;;;;;;;84.35;23.73;;;4.50;99.90;;;;;;5067883;28;20494;-86
2021/12/04 08:48:48;;;;;;;121.43;26.48;;;4.50;99.90;;;;;;5070176;28;20056;-86
2021/12/04 08:51:14;;;;;;;95.57;25.25;;;4.50;99.90;;;;;;5069921;28;20051;-80
2021/12/04 08:53:41;;;;;;;83.18;21.10;;;4.50;99.90;;;;;;5056411;28;20445;-85
2021/12/04 08:56:07;;;;;;;49.42;21.40;;;4.40;99.90;;;;;;5052608;28;20044;-87
2021/12/04 08:58:35;;;;;;;67.82;23.42;;;4.30;99.90;;;;;;5061691;28;20043;-81
2021/12/04 09:01:05;;;;;;;73.68;23.45;;;4.50;99.90;;;;;;5064123;28;20902;-84
2021/12/04 09:03:37;;;;;;;80.13;23.80;;;4.30;99.90;;;;;;5061661;28;20075;-85
2021/12/04 09:06:04;;;;;;;84.82;23.75;;;4.40;99.90;;;;;;5072863;28;20083;-83
2021/12/04 09:08:31;;;;;;;82.85;21.83;;;4.60;99.90;;;;;;5071711;28;20051;-85
2021/12/04 09:11:00;;;;;;;40.55;18.02;;;4.50;99.90;;;;;;5053042;28;20150;-85
2021/12/04 09:13:28;;;;;;;49.00;19.52;;;4.60;99.90;;;;;;5053234;28;20044;-85
2021/12/04 09:15:56;;;;;;;42.78;20.10;;;4.60;99.90;;;;;;5054199;28;20067;-83
2021/12/04 09:18:22;;;;;;;41.53;19.55;;;4.40;99.90;;;;;;5061068;28;20051;-83
2021/12/04 09:20:50;;;;;;;42.75;18.25;;;4.50;99.90;;;;;;5072060;28;20042;-84
2021/12/04 09:23:18;;;;;;;51.30;19.33;;;4.50;99.90;;;;;;5051459;28;20086;-83
2021/12/04 09:25:48;;;;;;;45.20;18.83;;;4.40;99.90;;;;;;5035399;28;20499;-78
2021/12/04 09:30:59;;;;;;;45.08;19.30;;;4.60;99.90;;;;;;5071841;28;20052;-82
2021/12/04 10:05:58;;;;;;;33.30;14.50;;;4.60;99.90;;;;;;5053827;28;20048;-79
2021/12/04 10:17:13;;;;;;;35.55;17.67;;;4.70;99.90;;;;;;5065378;28;19920;-85
2021/12/04 10:33:18;;;;;;;33.78;16.25;;;4.70;99.90;;;;;;5069499;28;20044;-84
2021/12/04 10:35:48;;;;;;;33.00;15.07;;;4.80;99.90;;;;;;5066735;28;20040;-81
2021/12/04 10:38:23;;;;;;;30.25;15.88;;;4.70;99.90;;;;;;5072970;28;20040;-80
2021/12/04 10:40:50;;;;;;;32.92;15.98;;;4.70;99.90;;;;;;5067151;28;20493;-83
2021/12/04 10:43:30;;;;;;;32.20;17.13;;;4.80;99.90;;;;;;5066649;28;20058;-79
2021/12/04 10:46:00;;;;;;;33.60;17.58;;;4.80;99.90;;;;;;5072366;28;20059;-81
2021/12/04 10:48:27;;;;;;;;;;;4.80;99.90;;;;;;5038939;28;20083;-80
2021/12/04 10:51:21;;;;;;;32.97;16.60;;;4.90;99.90;;;;;;5072402;28;20026;-81
2021/12/04 10:53:49;;;;;;;33.45;16.67;;;4.90;99.90;;;;;;5056835;28;20459;-82
2021/12/04 10:56:36;;;;;;;39.65;19.17;;;4.70;99.90;;;;;;5092149;28;20082;-77
2021/12/04 11:01:45;;;;;;;35.75;18.50;;;4.80;99.90;;;;;;5067438;28;20476;-81
2021/12/04 11:04:23;;;;;;;29.45;16.92;;;4.70;99.90;;;;;;5059467;28;20508;-80
2021/12/04 11:07:19;;;;;;;41.10;18.77;;;4.80;99.90;;;;;;5074445;28;20047;-80
2021/12/04 11:21:21;;;;;;;29.58;15.18;;;4.70;99.90;;;;;;5075077;28;20051;-88
2021/12/04 11:42:52;;;;;;;23.52;13.05;;;5.10;99.90;;;;;;5057264;28;20394;-85
2021/12/04 11:45:27;;;;;;;22.45;13.65;;;4.90;99.90;;;;;;5046286;28;20127;-86
2021/12/04 11:48:03;;;;;;;26.88;16.45;;;5.00;99.90;;;;;;5071625;28;20048;-87
2021/12/04 11:50:31;;;;;;;22.92;14.77;;;5.10;99.90;;;;;;5053966;28;20040;-88
2021/12/04 11:53:16;;;;;;;25.23;16.52;;;5.00;99.90;;;;;;5054877;28;20044;-88
2021/12/04 11:55:44;;;;;;;24.50;14.18;;;4.80;99.90;;;;;;5071300;28;20196;-86
2021/12/04 11:58:25;;;;;;;24.42;14.35;;;5.00;99.90;;;;;;5092988;28;20048;-86
2021/12/04 12:00:57;;;;;;;25.50;14.07;;;5.10;99.90;;;;;;5080901;28;20040;-87
2021/12/04 12:03:28;;;;;;;24.05;15.85;;;5.10;99.90;;;;;;5067435;28;20049;-88
2021/12/04 12:05:56;;;;;;;;;;;5.00;99.90;;;;;;5074172;28;20203;-78
2021/12/04 12:08:26;;;;;;;29.10;16.63;;;4.90;99.90;;;;;;5105915;28;19946;-85
2021/12/04 12:10:57;;;;;;;29.80;14.82;;;5.10;99.90;;;;;;5094530;28;20112;-85
2021/12/04 12:13:40;;;;;;;30.20;16.00;;;5.10;99.90;;;;;;5055001;28;20054;-89
2021/12/04 12:16:10;;;;;;;31.88;16.65;;;5.00;99.90;;;;;;5088963;28;20044;-88
2021/12/04 12:18:53;;;;;;;33.83;17.98;;;5.00;99.90;;;;;;5092952;28;20047;-87
2021/12/04 12:21:28;;;;;;;26.63;14.75;;;5.10;99.90;;;;;;5075082;28;20432;-85
2021/12/04 12:36:11;;;;;;;36.67;19.50;;;5.10;99.90;;;;;;5095415;28;20051;-87
2021/12/04 12:39:05;;;;;;;34.92;18.58;;;5.10;99.90;;;;;;5063593;28;20048;-86
2021/12/04 12:41:37;;;;;;;37.85;19.20;;;5.20;99.90;;;;;;5078697;28;20067;-84
2021/12/04 12:44:12;;;;;;;36.05;19.23;;;5.00;99.90;;;;;;5085964;28;20122;-85
2021/12/04 12:46:46;;;;;;;33.75;17.77;;;5.20;99.90;;;;;;5084739;28;20048;-81
2021/12/04 12:49:26;;;;;;;29.55;17.45;;;5.20;99.90;;;;;;5083038;28;20041;-74
2021/12/04 12:52:03;;;;;;;33.70;18.35;;;5.20;99.90;;;;;;5100399;28;20450;-85
2021/12/04 12:54:56;;;;;;;37.33;19.63;;;5.10;99.90;;;;;;5068184;28;20045;-87
2021/12/04 12:57:31;;;;;;;32.58;17.77;;;5.20;99.90;;;;;;5087194;28;20412;-84
2021/12/04 13:14:19;;;;;;;36.20;18.80;;;5.10;99.90;;;;;;5058560;28;20045;-86
2021/12/04 13:17:05;;;;;;;36.15;19.38;;;5.00;99.90;;;;;;5072990;28;20048;-89
2021/12/04 13:19:32;;;;;;;30.60;18.05;;;5.20;99.90;;;;;;5038451;28;20045;-87
2021/12/04 13:22:03;;;;;;;32.35;18.45;;;5.10;99.90;;;;;;5055087;28;20076;-87
2021/12/04 13:24:33;;;;;;;32.33;15.35;;;5.20;99.90;;;;;;5091023;28;20040;-90
2021/12/04 13:29:38;;;;;;;28.90;17.55;;;5.20;99.90;;;;;;5085650;28;20089;-81
2021/12/04 13:32:04;;;;;;;31.42;17.88;;;5.30;99.90;;;;;;5079276;28;20170;-85
2021/12/04 13:34:31;;;;;;;27.45;16.80;;;5.20;99.90;;;;;;5035672;28;20048;-85
2021/12/04 13:36:58;;;;;;;28.00;16.20;;;5.20;99.90;;;;;;5075447;28;20056;-85
2021/12/04 13:39:25;;;;;;;28.75;16.20;;;5.20;99.90;;;;;;5074469;28;20044;-87
2021/12/04 13:41:53;;;;;;;28.33;19.10;;;5.20;99.90;;;;;;5054683;28;20044;-87
2021/12/04 13:44:20;;;;;;;28.25;16.38;;;5.20;99.90;;;;;;5052848;28;20101;-86
2021/12/04 13:46:49;;;;;;;24.85;15.98;;;5.20;99.90;;;;;;5061762;28;20546;-86
2021/12/04 13:49:18;;;;;;;26.50;14.88;;;5.20;99.90;;;;;;5070262;28;20044;-79
2021/12/04 13:51:55;;;;;;;35.03;17.50;;;5.20;99.90;;;;;;5076999;28;20094;-85
2021/12/04 13:54:22;;;;;;;30.55;17.70;;;5.20;99.90;;;;;;5070954;28;20098;-86
2021/12/04 13:56:48;;;;;;;26.48;15.25;;;5.00;99.90;;;;;;5063736;28;20391;-86
2021/12/04 13:59:14;;;;;;;31.35;16.17;;;5.20;99.90;;;;;;5079769;28;20052;-83
2021/12/04 14:01:42;;;;;;;28.38;17.27;;;5.10;99.90;;;;;;5079441;28;20099;-84
2021/12/04 14:04:16;;;;;;;30.65;16.48;;;5.10;99.90;;;;;;5088279;28;20078;-86
2021/12/04 14:07:02;;;;;;;32.03;17.38;;;5.10;99.90;;;;;;5066091;28;20390;-85
2021/12/04 14:09:34;;;;;;;32.72;18.98;;;5.10;99.90;;;;;;5074764;28;20047;-86
2021/12/04 14:12:02;;;;;;;35.45;18.88;;;5.00;99.90;;;;;;5084882;28;20074;-85
2021/12/04 14:14:29;;;;;;;31.48;18.83;;;5.00;99.90;;;;;;5053802;28;20088;-85
2021/12/04 14:17:02;;;;;;;32.58;17.70;;;5.20;99.90;;;;;;5060626;28;20056;-83
2021/12/04 14:19:29;;;;;;;35.85;19.60;;;5.20;99.90;;;;;;5068025;28;20049;-84
2021/12/04 14:22:01;;;;;;;31.63;17.42;;;5.20;99.90;;;;;;5074307;28;20097;-83
2021/12/04 14:24:35;;;;;;;31.73;18.80;;;5.10;99.90;;;;;;5066290;28;20124;-84
2021/12/04 14:27:02;;;;;;;35.08;18.00;;;5.00;99.90;;;;;;5051598;28;20402;-84
2021/12/04 14:29:33;;;;;;;31.45;17.52;;;5.10;99.90;;;;;;5056555;28;20391;-85
2021/12/04 14:31:59;;;;;;;36.53;18.80;;;5.10;99.90;;;;;;5058069;28;20108;-83
2021/12/04 14:34:29;;;;;;;35.70;18.73;;;5.20;99.90;;;;;;5050246;28;20566;-84
2021/12/04 14:37:06;;;;;;;37.55;17.92;;;5.20;99.90;;;;;;5080362;28;20036;-84
2021/12/04 14:39:32;;;;;;;34.60;19.33;;;5.10;99.90;;;;;;5054245;28;20076;-80
2021/12/04 14:41:58;;;;;;;35.63;19.92;;;5.00;99.90;;;;;;5074409;28;20448;-81
2021/12/04 14:44:24;;;;;;;42.67;20.02;;;5.10;99.90;;;;;;5076874;28;20068;-83
2021/12/04 14:46:51;;;;;;;42.20;18.70;;;4.90;99.90;;;;;;5080184;28;20044;-82
2021/12/04 14:49:17;;;;;;;39.33;19.13;;;5.10;99.90;;;;;;5077495;28;20043;-82
2021/12/04 14:51:43;;;;;;;42.55;18.58;;;5.10;99.90;;;;;;5062503;28;20047;-78
2021/12/04 14:54:09;;;;;;;35.33;18.08;;;5.00;99.90;;;;;;5078591;28;20028;-83
2021/12/04 14:56:35;;;;;;;35.15;17.85;;;4.90;99.90;;;;;;5067896;28;20081;-83
2021/12/04 14:59:12;;;;;;;44.38;19.90;;;5.20;99.90;;;;;;5085002;28;20394;-84
2021/12/04 15:01:37;;;;;;;46.95;18.42;;;5.10;99.90;;;;;;5062250;28;20087;-82
2021/12/04 15:04:04;;;;;;;45.03;20.25;;;5.00;99.90;;;;;;5048233;28;20071;-86
2021/12/04 15:06:33;;;;;;;43.72;20.67;;;5.00;99.90;;;;;;5062708;28;20049;-85
2021/12/04 15:09:10;;;;;;;56.65;21.33;;;5.20;99.90;;;;;;5079096;28;20118;-86
2021/12/04 15:11:47;;;;;;;38.67;18.70;;;5.00;99.90;;;;;;5037496;28;20122;-81
2021/12/04 15:14:20;;;;;;;44.33;20.27;;;5.20;99.90;;;;;;5059466;28;20048;-84
2021/12/04 15:16:50;;;;;;;40.63;19.95;;;5.00;99.90;;;;;;5050962;28;20060;-81
2021/12/04 15:19:38;;;;;;;38.55;19.85;;;5.20;99.90;;;;;;5081537;28;20052;-82
2021/12/04 15:22:05;;;;;;;35.08;17.77;;;5.10;99.90;;;;;;5080973;28;20099;-81
2021/12/04 15:24:42;;;;;;;32.58;18.52;;;5.20;99.90;;;;;;5062351;28;20493;-78
2021/12/04 15:27:14;;;;;;;30.05;17.67;;;5.20;99.90;;;;;;5038120;28;20048;-82
2021/12/04 15:29:40;;;;;;;32.80;18.98;;;5.10;99.90;;;;;;5056653;28;20420;-81
2021/12/04 15:32:10;;;;;;;25.45;16.35;;;5.00;99.90;;;;;;5081426;28;20047;-83
2021/12/04 15:34:52;;;;;;;29.83;16.17;;;5.10;99.90;;;;;;5081507;28;20036;-82
2021/12/04 15:37:46;;;;;;;27.48;16.73;;;5.00;99.90;;;;;;5080963;28;20098;-78
2021/12/04 15:40:37;;;;;;;29.52;17.65;;;5.20;99.90;;;;;;5072144;28;20033;-81
2021/12/04 15:46:04;;;;;;;36.22;16.98;;;5.10;99.90;;;;;;5090586;28;20075;-79
2021/12/04 15:54:05;;;;;;;33.08;18.48;;;5.10;99.90;;;;;;5054526;28;20167;-81
2021/12/04 15:56:43;;;;;;;35.88;18.77;;;5.10;99.90;;;;;;5076093;28;20040;-78